createdAt,value
2022-10-17T00:00:38.331Z,16.01
2022-10-17T00:03:05.198Z,16.02
2022-10-17T00:05:32.247Z,16.00
2022-10-17T00:07:58.695Z,15.80
2022-10-17T00:10:25.104Z,15.85
2022-10-17T00:12:55.523Z,15.88
2022-10-17T00:15:22.197Z,15.85
2022-10-17T00:17:49.095Z,15.84
2022-10-17T00:20:16.343Z,15.80
2022-10-17T00:22:43.618Z,15.80
2022-10-17T00:25:29.986Z,15.82
2022-10-17T00:28:16.374Z,15.82
2022-10-17T00:31:06.668Z,15.84
2022-10-17T00:33:53.347Z,15.80
2022-10-17T00:36:40.013Z,15.82
2022-10-17T00:39:26.657Z,15.83
2022-10-17T00:41:53.095Z,15.81
2022-10-17T00:44:29.562Z,15.81
2022-10-17T00:47:06.001Z,15.78
2022-10-17T00:49:36.801Z,15.74
2022-10-17T00:52:08.371Z,15.76
2022-10-17T00:54:38.973Z,15.75
2022-10-17T00:57:06.297Z,15.74
2022-10-17T00:59:34.164Z,15.76
2022-10-17T01:02:05.487Z,15.72
2022-10-17T01:04:32.362Z,15.68
2022-10-17T01:06:58.951Z,15.71
2022-10-17T01:09:26.501Z,15.68
2022-10-17T01:12:18.735Z,15.69
2022-10-17T01:15:02.996Z,15.66
2022-10-17T01:17:51.207Z,15.56
2022-10-17T01:20:41.062Z,15.58
2022-10-17T01:23:26.847Z,15.54
2022-10-17T01:26:18.586Z,15.48
2022-10-17T01:29:09.539Z,15.40
2022-10-17T01:31:48.876Z,15.43
2022-10-17T01:34:27.263Z,15.43
2022-10-17T01:37:20.931Z,15.44
2022-10-17T01:40:03.295Z,15.40
2022-10-17T01:42:46.007Z,15.38
2022-10-17T01:45:29.586Z,15.35
2022-10-17T01:48:00.459Z,15.36
2022-10-17T01:50:35.839Z,15.33
2022-10-17T01:53:09.191Z,15.34
2022-10-17T01:55:40.488Z,15.34
2022-10-17T01:58:09.379Z,15.38
2022-10-17T02:00:38.061Z,15.36
2022-10-17T02:03:09.317Z,15.32
2022-10-17T02:05:41.301Z,15.32
2022-10-17T02:08:10.443Z,15.29
2022-10-17T02:10:47.166Z,15.27
2022-10-17T02:13:38.736Z,15.20
2022-10-17T02:16:16.038Z,15.18
2022-10-17T02:18:58.259Z,15.18
2022-10-17T02:21:35.954Z,15.21
2022-10-17T02:24:30.548Z,15.22
2022-10-17T02:27:09.846Z,15.10
2022-10-17T02:29:48.094Z,15.12
2022-10-17T02:34:56.969Z,15.12
2022-10-17T02:37:28.842Z,15.11
2022-10-17T02:39:59.089Z,15.07
2022-10-17T02:42:27.878Z,15.12
2022-10-17T02:45:00.872Z,15.08
2022-10-17T02:47:34.679Z,15.07
2022-10-17T02:50:01.466Z,15.07
2022-10-17T02:52:46.445Z,15.09
2022-10-17T02:55:32.216Z,15.08
2022-10-17T02:58:11.201Z,15.06
2022-10-17T03:00:41.515Z,15.06
2022-10-17T03:03:29.316Z,15.06
2022-10-17T03:06:00.185Z,15.12
2022-10-17T03:08:26.775Z,15.12
2022-10-17T03:10:53.736Z,15.14
2022-10-17T03:13:21.440Z,15.08
2022-10-17T03:15:48.056Z,15.08
2022-10-17T03:18:14.471Z,15.06
2022-10-17T03:20:41.161Z,15.02
2022-10-17T03:23:08.503Z,15.01
2022-10-17T03:25:36.306Z,14.97
2022-10-17T03:28:03.258Z,15.00
2022-10-17T03:30:30.347Z,14.93
2022-10-17T03:32:58.894Z,14.93
2022-10-17T03:35:27.263Z,14.91
2022-10-17T03:37:56.031Z,14.87
2022-10-17T03:40:24.345Z,14.90
2022-10-17T03:42:51.400Z,14.86
2022-10-17T03:45:17.822Z,14.85
2022-10-17T03:47:45.575Z,14.83
2022-10-17T03:50:12.703Z,14.85
2022-10-17T03:52:39.912Z,14.79
2022-10-17T03:55:07.327Z,14.80
2022-10-17T03:57:35.959Z,14.73
2022-10-17T04:00:05.548Z,14.66
2022-10-17T04:02:40.759Z,14.63
2022-10-17T04:05:10.568Z,14.66
2022-10-17T04:07:38.136Z,14.61
2022-10-17T04:10:05.970Z,14.59
2022-10-17T04:12:32.967Z,14.56
2022-10-17T04:14:59.854Z,14.55
2022-10-17T04:17:27.117Z,14.57
2022-10-17T04:19:53.519Z,14.58
2022-10-17T04:22:22.858Z,14.55
2022-10-17T04:24:49.238Z,14.50
2022-10-17T04:27:40.814Z,14.50
2022-10-17T04:30:08.263Z,14.53
2022-10-17T04:32:41.450Z,14.47
2022-10-17T04:35:19.513Z,14.45
2022-10-17T04:37:51.282Z,14.41
2022-10-17T04:40:19.689Z,14.45
2022-10-17T04:42:47.295Z,14.49
2022-10-17T04:45:17.746Z,14.42
2022-10-17T04:47:46.432Z,14.38
2022-10-17T04:50:12.790Z,14.32
2022-10-17T04:52:40.608Z,14.37
2022-10-17T04:55:09.001Z,14.39
2022-10-17T04:57:37.691Z,14.35
2022-10-17T05:00:11.991Z,14.39
2022-10-17T05:03:01.782Z,14.50
2022-10-17T05:05:29.731Z,14.46
2022-10-17T05:07:57.114Z,14.43
2022-10-17T05:10:26.714Z,14.45
2022-10-17T05:12:54.323Z,14.42
2022-10-17T05:15:23.989Z,14.39
2022-10-17T05:17:56.174Z,14.32
2022-10-17T05:20:24.446Z,14.27
2022-10-17T05:22:51.126Z,14.24
2022-10-17T05:25:18.811Z,14.24
2022-10-17T05:27:45.511Z,14.24
2022-10-17T05:30:12.598Z,14.24
2022-10-17T05:32:40.179Z,14.24
2022-10-17T05:35:07.948Z,14.29
2022-10-17T05:37:35.787Z,14.24
2022-10-17T05:40:04.176Z,14.17
2022-10-17T05:42:31.168Z,14.14
2022-10-17T05:44:58.356Z,14.19
2022-10-17T05:47:25.738Z,14.25
2022-10-17T05:49:52.594Z,14.29
2022-10-17T05:52:33.049Z,14.37
2022-10-17T05:55:08.359Z,14.32
2022-10-17T05:57:35.702Z,14.30
2022-10-17T06:00:05.796Z,14.31
2022-10-17T06:02:41.248Z,14.27
2022-10-17T06:05:09.075Z,14.37
2022-10-17T06:07:36.192Z,14.38
2022-10-17T06:10:04.413Z,14.39
2022-10-17T06:12:31.197Z,14.36
2022-10-17T06:14:59.689Z,14.43
2022-10-17T06:17:26.455Z,14.40
2022-10-17T06:19:52.868Z,14.46
2022-10-17T06:22:19.798Z,14.47
2022-10-17T06:24:46.639Z,14.49
2022-10-17T06:27:14.041Z,14.56
2022-10-17T06:29:41.314Z,14.57
2022-10-17T06:32:09.932Z,14.68
2022-10-17T06:34:40.908Z,14.71
2022-10-17T06:37:07.337Z,14.69
2022-10-17T06:39:36.567Z,14.69
2022-10-17T06:42:07.295Z,14.75
2022-10-17T06:44:57.260Z,14.85
2022-10-17T06:47:41.023Z,14.88
2022-10-17T06:50:30.940Z,15.00
2022-10-17T06:53:11.949Z,15.12
2022-10-17T06:55:43.107Z,15.18
2022-10-17T06:58:22.519Z,15.27
2022-10-17T07:01:10.844Z,15.29
2022-10-17T07:03:38.026Z,15.35
2022-10-17T07:06:04.985Z,15.24
2022-10-17T07:08:31.621Z,15.30
2022-10-17T07:11:09.976Z,15.26
2022-10-17T07:13:39.163Z,15.28
2022-10-17T07:16:07.203Z,15.37
2022-10-17T07:18:34.830Z,15.50
2022-10-17T07:21:02.071Z,15.40
2022-10-17T07:23:29.507Z,15.30
2022-10-17T07:26:01.651Z,15.38
2022-10-17T07:28:29.293Z,15.50
2022-10-17T07:31:03.787Z,15.61
2022-10-17T07:33:30.706Z,15.82
2022-10-17T07:36:00.072Z,15.73
2022-10-17T07:38:27.862Z,15.95
2022-10-17T07:40:56.103Z,15.86
2022-10-17T07:43:24.068Z,16.01
2022-10-17T07:45:51.489Z,16.10
2022-10-17T07:48:19.062Z,16.30
2022-10-17T07:50:46.133Z,16.18
2022-10-17T07:53:12.873Z,16.13
2022-10-17T07:55:41.195Z,16.09
2022-10-17T07:58:09.227Z,16.33
2022-10-17T08:00:37.090Z,16.40
2022-10-17T08:03:04.726Z,16.56
2022-10-17T08:05:31.897Z,16.57
2022-10-17T08:07:58.546Z,16.77
2022-10-17T08:10:27.681Z,16.99
2022-10-17T08:12:55.324Z,17.16
2022-10-17T08:15:22.511Z,17.28
2022-10-17T08:17:49.671Z,17.31
2022-10-17T08:20:16.988Z,17.41
2022-10-17T08:22:43.634Z,17.62
2022-10-17T08:25:10.510Z,17.82
2022-10-17T08:27:36.924Z,17.95
2022-10-17T08:30:03.917Z,17.84
2022-10-17T08:32:30.538Z,17.97
2022-10-17T08:34:57.243Z,18.20
2022-10-17T08:37:23.872Z,18.43
2022-10-17T08:39:50.284Z,18.50
2022-10-17T08:42:38.908Z,18.76
2022-10-17T08:45:24.010Z,18.59
2022-10-17T08:48:09.473Z,18.69
2022-10-17T08:50:44.167Z,18.78
2022-10-17T08:53:35.105Z,19.04
2022-10-17T08:56:19.542Z,19.07
2022-10-17T08:58:51.605Z,19.35
2022-10-17T09:01:33.788Z,19.43
2022-10-17T09:04:24.683Z,19.39
2022-10-17T09:07:05.951Z,19.41
2022-10-17T09:09:50.296Z,19.70
2022-10-17T09:12:38.742Z,19.83
2022-10-17T09:15:40.439Z,19.92
2022-10-17T09:18:21.081Z,19.93
2022-10-17T09:20:55.539Z,20.24
2022-10-17T09:23:25.509Z,20.39
2022-10-17T09:25:58.332Z,20.39
2022-10-17T09:28:33.211Z,20.40
2022-10-17T09:31:04.224Z,20.52
2022-10-17T09:33:53.930Z,20.61
2022-10-17T09:36:25.790Z,20.63
2022-10-17T09:38:58.114Z,20.45
2022-10-17T09:41:45.482Z,20.57
2022-10-17T09:44:23.499Z,20.59
2022-10-17T09:47:31.880Z,20.67
2022-10-17T09:49:58.628Z,20.70
2022-10-17T09:52:34.091Z,21.05
2022-10-17T09:55:17.564Z,21.04
2022-10-17T09:57:59.125Z,21.16
2022-10-17T10:00:32.321Z,21.10
2022-10-17T10:03:18.423Z,21.17
2022-10-17T10:06:05.284Z,21.10
2022-10-17T10:08:35.768Z,21.29
2022-10-17T10:11:05.748Z,21.66
2022-10-17T10:13:34.960Z,21.86
2022-10-17T10:16:24.225Z,21.69
2022-10-17T10:18:52.408Z,21.89
2022-10-17T10:21:24.613Z,21.89
2022-10-17T10:24:14.411Z,21.89
2022-10-17T10:26:46.553Z,21.87
2022-10-17T10:29:34.032Z,22.03
2022-10-17T10:32:15.642Z,22.20
2022-10-17T10:35:07.491Z,22.20
2022-10-17T10:37:42.412Z,22.21
2022-10-17T10:40:20.536Z,22.46
2022-10-17T10:42:50.246Z,22.56
2022-10-17T10:45:48.154Z,22.86
2022-10-17T10:48:21.287Z,23.14
2022-10-17T10:51:09.719Z,22.41
2022-10-17T10:53:55.380Z,22.82
2022-10-17T10:56:38.599Z,23.09
2022-10-17T10:59:08.533Z,22.82
2022-10-17T11:01:44.263Z,23.45
2022-10-17T11:04:47.495Z,23.43
2022-10-17T11:07:24.073Z,23.42
2022-10-17T11:10:00.432Z,23.65
2022-10-17T11:13:15.689Z,23.36
2022-10-17T11:16:02.350Z,23.97
2022-10-17T11:18:35.504Z,23.55
2022-10-17T11:21:28.953Z,23.96
2022-10-17T11:24:16.988Z,23.93
2022-10-17T11:26:52.353Z,23.90
2022-10-17T11:29:18.776Z,23.67
2022-10-17T11:31:55.203Z,23.91
2022-10-17T11:34:36.663Z,23.62
2022-10-17T11:37:14.773Z,24.04
2022-10-17T11:39:49.406Z,24.03
2022-10-17T11:42:23.012Z,24.32
2022-10-17T11:44:55.760Z,23.96
2022-10-17T11:47:45.829Z,24.31
2022-10-17T11:53:17.564Z,24.95
2022-10-17T11:55:45.769Z,24.85
2022-10-17T11:58:37.734Z,24.51
2022-10-17T12:01:07.939Z,24.86
2022-10-17T12:04:06.650Z,24.98
2022-10-17T12:06:52.574Z,25.05
2022-10-17T12:09:43.326Z,24.59
2022-10-17T12:12:09.930Z,25.41
2022-10-17T12:14:47.528Z,25.60
2022-10-17T12:17:28.276Z,25.78
2022-10-17T12:20:21.327Z,25.87
2022-10-17T12:23:12.013Z,26.09
2022-10-17T12:25:55.927Z,25.97
2022-10-17T12:28:28.530Z,25.93
2022-10-17T12:31:08.731Z,25.94
2022-10-17T12:33:53.568Z,26.13
2022-10-17T12:36:21.328Z,25.74
2022-10-17T12:39:13.530Z,25.81
2022-10-17T12:41:40.440Z,26.19
2022-10-17T12:44:12.817Z,26.34
2022-10-17T12:46:56.166Z,26.44
2022-10-17T12:49:43.146Z,26.23
2022-10-17T12:52:46.859Z,26.29
2022-10-17T12:55:23.827Z,26.50
2022-10-17T12:58:16.843Z,26.77
2022-10-17T13:03:44.802Z,26.98
2022-10-17T13:06:19.458Z,27.18
2022-10-17T13:08:53.627Z,26.60
2022-10-17T13:11:25.767Z,26.96
2022-10-17T13:13:59.115Z,27.11
2022-10-17T13:16:34.864Z,26.93
2022-10-17T13:19:03.666Z,26.99
2022-10-17T13:21:30.515Z,26.78
2022-10-17T13:23:57.521Z,27.00
2022-10-17T13:26:26.840Z,26.96
2022-10-17T13:29:11.780Z,26.79
2022-10-17T13:31:40.582Z,27.45
2022-10-17T13:34:17.402Z,27.87
2022-10-17T13:36:48.759Z,27.71
2022-10-17T13:39:23.209Z,27.77
2022-10-17T13:41:59.458Z,27.66
2022-10-17T13:44:28.797Z,27.79
2022-10-17T13:46:55.351Z,27.53
2022-10-17T13:49:40.387Z,27.84
2022-10-17T13:52:17.384Z,28.30
2022-10-17T13:54:46.418Z,28.26
2022-10-17T13:57:20.222Z,28.42
2022-10-17T13:59:50.139Z,28.45
2022-10-17T14:02:19.701Z,28.59
2022-10-17T14:08:11.410Z,29.21
2022-10-17T14:10:40.366Z,28.76
2022-10-17T14:13:16.863Z,28.64
2022-10-17T14:15:46.132Z,29.03
2022-10-17T14:18:23.656Z,29.20
2022-10-17T14:23:42.086Z,29.28
2022-10-17T14:26:21.317Z,29.36
2022-10-17T14:29:02.372Z,29.10
2022-10-17T14:31:32.270Z,28.96
2022-10-17T14:34:00.767Z,28.53
2022-10-17T14:36:34.774Z,28.10
2022-10-17T14:39:02.328Z,28.08
2022-10-17T14:41:47.846Z,28.22
2022-10-17T14:44:34.228Z,27.83
2022-10-17T14:47:30.283Z,27.55
2022-10-17T14:50:01.857Z,26.98
2022-10-17T14:52:30.523Z,26.79
2022-10-17T14:54:58.614Z,26.85
2022-10-17T14:57:40.754Z,26.78
2022-10-17T15:00:07.842Z,26.57
2022-10-17T15:02:34.842Z,26.46
2022-10-17T15:05:01.314Z,26.32
2022-10-17T15:07:27.747Z,26.21
2022-10-17T15:09:54.494Z,26.03
2022-10-17T15:12:26.112Z,25.59
2022-10-17T15:14:53.217Z,25.61
2022-10-17T15:17:20.729Z,25.67
2022-10-17T15:19:48.501Z,25.38
2022-10-17T15:22:15.995Z,25.35
2022-10-17T15:24:42.758Z,25.13
2022-10-17T15:27:23.837Z,24.93
2022-10-17T15:29:51.630Z,24.87
2022-10-17T15:32:18.746Z,24.76
2022-10-17T15:34:45.174Z,24.64
2022-10-17T15:37:21.914Z,24.61
2022-10-17T15:39:54.155Z,24.54
2022-10-17T15:42:22.882Z,24.57
2022-10-17T15:44:50.120Z,24.51
2022-10-17T15:47:33.210Z,24.62
2022-10-17T15:50:00.831Z,24.57
2022-10-17T15:52:27.599Z,24.56
2022-10-17T15:54:59.669Z,24.52
2022-10-17T15:57:31.656Z,24.40
2022-10-17T16:00:00.061Z,24.18
2022-10-17T16:02:27.102Z,24.06
2022-10-17T16:04:53.822Z,24.11
2022-10-17T16:07:21.388Z,23.99
2022-10-17T16:09:47.976Z,23.92
2022-10-17T16:14:53.004Z,23.81
2022-10-17T16:17:19.498Z,23.79
2022-10-17T16:19:46.016Z,23.68
2022-10-17T16:22:33.645Z,23.54
2022-10-17T16:25:07.494Z,23.45
2022-10-17T16:27:33.930Z,23.40
2022-10-17T16:30:00.314Z,23.30
2022-10-17T16:32:26.749Z,23.12
2022-10-17T16:34:53.395Z,22.97
2022-10-17T16:37:19.794Z,22.80
2022-10-17T16:39:52.152Z,22.75
2022-10-17T16:42:19.615Z,22.64
2022-10-17T16:44:47.689Z,22.44
2022-10-17T16:47:14.423Z,22.31
2022-10-17T16:49:44.373Z,22.25
2022-10-17T16:52:12.525Z,22.21
2022-10-17T16:54:39.044Z,22.14
2022-10-17T16:57:05.652Z,22.06
2022-10-17T16:59:32.225Z,21.96
2022-10-17T17:01:59.017Z,21.84
2022-10-17T17:04:25.512Z,21.75
2022-10-17T17:06:51.919Z,21.82
2022-10-17T17:09:18.399Z,21.54
2022-10-17T17:11:45.091Z,21.45
2022-10-17T17:14:12.798Z,21.27
2022-10-17T17:16:39.786Z,21.30
2022-10-17T17:19:10.735Z,21.20
2022-10-17T17:21:37.715Z,21.20
2022-10-17T17:24:04.943Z,21.06
2022-10-17T17:26:36.575Z,21.08
2022-10-17T17:29:04.048Z,20.94
2022-10-17T17:31:33.760Z,20.92
2022-10-17T17:34:01.370Z,20.85
2022-10-17T17:36:30.621Z,20.73
2022-10-17T17:38:59.188Z,20.65
2022-10-17T17:41:29.716Z,20.63
2022-10-17T17:43:56.141Z,20.57
2022-10-17T17:46:23.894Z,20.48
2022-10-17T17:48:51.795Z,20.52
2022-10-17T17:51:24.243Z,20.42
2022-10-17T17:53:54.014Z,20.38
2022-10-17T17:56:29.664Z,20.36
2022-10-17T17:58:58.664Z,20.31
2022-10-17T18:01:27.665Z,20.25
2022-10-17T18:03:55.488Z,20.27
2022-10-17T18:06:23.081Z,20.25
2022-10-17T18:08:53.240Z,20.07
2022-10-17T18:11:22.040Z,20.05
2022-10-17T18:13:57.554Z,20.13
2022-10-17T18:16:25.418Z,20.03
2022-10-17T18:18:52.152Z,19.94
2022-10-17T18:21:19.008Z,19.90
2022-10-17T18:23:47.817Z,19.82
2022-10-17T18:26:15.066Z,19.92
2022-10-17T18:28:42.827Z,19.85
2022-10-17T18:31:15.499Z,19.80
2022-10-17T18:33:44.463Z,19.63
2022-10-17T18:36:13.673Z,19.73
2022-10-17T18:38:40.383Z,19.70
2022-10-17T18:41:21.887Z,19.64
2022-10-17T18:43:49.802Z,19.55
2022-10-17T18:46:22.394Z,19.51
2022-10-17T18:48:50.112Z,19.46
2022-10-17T18:51:19.577Z,19.50
2022-10-17T18:53:48.879Z,19.55
2022-10-17T18:56:15.838Z,19.35
2022-10-17T18:58:42.493Z,19.37
2022-10-17T19:01:18.208Z,19.34
2022-10-17T19:03:46.325Z,19.30
2022-10-17T19:06:17.465Z,19.29
2022-10-17T19:08:44.995Z,19.17
2022-10-17T19:11:24.792Z,19.18
2022-10-17T19:13:52.318Z,19.17
2022-10-17T19:16:22.573Z,19.21
2022-10-17T19:19:07.098Z,19.12
2022-10-17T19:21:34.543Z,19.18
2022-10-17T19:24:03.668Z,19.12
2022-10-17T19:26:32.453Z,19.12
2022-10-17T19:29:00.643Z,19.09
2022-10-17T19:31:29.093Z,19.06
2022-10-17T19:33:56.087Z,19.03
2022-10-17T19:36:28.865Z,18.89
2022-10-17T19:38:58.917Z,18.97
2022-10-17T19:41:25.787Z,18.99
2022-10-17T19:43:52.354Z,18.99
2022-10-17T19:46:22.117Z,18.92
2022-10-17T19:48:49.989Z,18.88
2022-10-17T19:51:18.069Z,18.83
2022-10-17T19:53:45.589Z,18.67
2022-10-17T19:56:12.425Z,18.61
2022-10-17T19:58:46.650Z,18.47
2022-10-17T20:01:16.756Z,18.43
2022-10-17T20:03:43.817Z,18.49
2022-10-17T20:06:10.509Z,18.47
2022-10-17T20:08:38.471Z,18.55
2022-10-17T20:11:11.811Z,18.40
2022-10-17T20:13:38.648Z,18.44
2022-10-17T20:16:06.528Z,18.41
2022-10-17T20:18:33.912Z,18.33
2022-10-17T20:21:15.786Z,18.25
2022-10-17T20:23:43.341Z,18.23
2022-10-17T20:26:25.934Z,18.19
2022-10-17T20:29:02.411Z,18.09
2022-10-17T20:31:29.355Z,18.12
2022-10-17T20:33:57.423Z,18.02
2022-10-17T20:36:23.931Z,18.09
2022-10-17T20:38:55.817Z,18.13
2022-10-17T20:41:23.531Z,18.10
2022-10-17T20:43:53.630Z,18.10
2022-10-17T20:46:36.329Z,17.93
2022-10-17T20:49:05.814Z,17.81
2022-10-17T20:51:32.840Z,17.97
2022-10-17T20:53:59.320Z,17.93
2022-10-17T20:56:28.531Z,17.82
2022-10-17T20:59:00.128Z,17.78
2022-10-17T21:01:28.454Z,17.73
2022-10-17T21:03:55.047Z,17.76
2022-10-17T21:06:23.208Z,17.78
2022-10-17T21:08:51.443Z,17.82
2022-10-17T21:11:23.150Z,17.74
2022-10-17T21:13:58.262Z,17.77
2022-10-17T21:16:25.955Z,17.81
2022-10-17T21:18:52.883Z,17.74
2022-10-17T21:21:26.911Z,17.63
2022-10-17T21:23:57.841Z,17.66
2022-10-17T21:26:24.998Z,17.64
2022-10-17T21:28:51.750Z,17.73
2022-10-17T21:31:21.777Z,17.63
2022-10-17T21:33:50.867Z,17.50
2022-10-17T21:36:19.145Z,17.50
2022-10-17T21:38:48.203Z,17.52
2022-10-17T21:41:19.951Z,17.51
2022-10-17T21:43:47.288Z,17.55
2022-10-17T21:46:16.663Z,17.50
2022-10-17T21:48:43.879Z,17.51
2022-10-17T21:51:14.508Z,17.53
2022-10-17T21:53:41.847Z,17.52
2022-10-17T21:56:13.807Z,17.45
2022-10-17T21:58:41.041Z,17.43
2022-10-17T22:01:17.125Z,17.39
2022-10-17T22:03:48.129Z,17.45
2022-10-17T22:09:04.970Z,17.54
2022-10-17T22:11:34.152Z,17.48
2022-10-17T22:14:06.237Z,17.42
2022-10-17T22:16:33.396Z,17.48
2022-10-17T22:19:04.810Z,17.41
2022-10-17T22:21:33.296Z,17.39
2022-10-17T22:24:03.228Z,17.41
2022-10-17T22:26:31.592Z,17.44
2022-10-17T22:28:58.787Z,17.35
2022-10-17T22:31:25.260Z,17.37
2022-10-17T22:33:51.888Z,17.40
2022-10-17T22:36:18.667Z,17.36
2022-10-17T22:38:45.608Z,17.26
2022-10-17T22:41:11.994Z,17.22
2022-10-17T22:43:38.589Z,17.22
2022-10-17T22:46:06.784Z,17.12
2022-10-17T22:48:34.260Z,17.18
2022-10-17T22:51:01.275Z,17.25
2022-10-17T22:53:29.875Z,17.26
2022-10-17T22:55:59.436Z,17.22
2022-10-17T22:58:26.767Z,17.12
2022-10-17T23:00:54.649Z,17.13
2022-10-17T23:03:22.585Z,17.12
2022-10-17T23:05:49.417Z,17.06
2022-10-17T23:08:18.201Z,17.12
2022-10-17T23:10:45.336Z,17.15
2022-10-17T23:13:11.963Z,17.20
2022-10-17T23:15:38.788Z,17.14
2022-10-17T23:18:05.733Z,17.19
2022-10-17T23:20:32.453Z,17.18
2022-10-17T23:22:59.722Z,17.18
2022-10-17T23:25:26.712Z,17.20
2022-10-17T23:27:54.136Z,17.14
2022-10-17T23:30:21.275Z,17.18
2022-10-17T23:32:47.963Z,17.11
2022-10-17T23:35:15.140Z,17.07
2022-10-17T23:37:41.953Z,17.04
2022-10-17T23:40:09.304Z,17.07
2022-10-17T23:42:35.736Z,17.00
2022-10-17T23:45:02.594Z,16.99
2022-10-17T23:47:31.166Z,17.06
2022-10-17T23:49:58.206Z,17.06
2022-10-17T23:52:24.939Z,17.06
2022-10-17T23:54:51.357Z,16.96
2022-10-17T23:57:18.021Z,17.00
2022-10-17T23:59:44.684Z,17.00
